createdAt,value
2022-08-20T00:01:04.626Z,17.70
2022-08-20T00:03:35.399Z,17.70
2022-08-20T00:06:12.961Z,17.60
2022-08-20T00:08:40.428Z,17.60
2022-08-20T00:11:09.972Z,17.60
2022-08-20T00:13:41.987Z,17.60
2022-08-20T00:16:09.037Z,17.60
2022-08-20T00:18:36.341Z,17.60
2022-08-20T00:21:06.493Z,17.60
2022-08-20T00:23:33.291Z,17.60
2022-08-20T00:26:00.121Z,17.50
2022-08-20T00:28:26.911Z,17.50
2022-08-20T00:30:53.745Z,17.50
2022-08-20T00:33:23.295Z,17.50
2022-08-20T00:35:55.163Z,17.50
2022-08-20T00:38:22.845Z,17.50
2022-08-20T00:40:54.105Z,17.50
2022-08-20T00:43:30.240Z,17.50
2022-08-20T00:45:59.516Z,17.50
2022-08-20T00:48:28.790Z,17.40
2022-08-20T00:51:02.951Z,17.50
2022-08-20T00:53:30.392Z,17.60
2022-08-20T00:55:57.343Z,17.60
2022-08-20T00:58:25.031Z,17.60
2022-08-20T01:00:52.021Z,17.60
2022-08-20T01:03:19.613Z,17.50
2022-08-20T01:05:50.105Z,17.50
2022-08-20T01:08:20.236Z,17.50
2022-08-20T01:10:50.109Z,17.50
2022-08-20T01:13:21.835Z,17.50
2022-08-20T01:15:51.133Z,17.50
2022-08-20T01:18:21.988Z,17.50
2022-08-20T01:20:54.059Z,17.50
2022-08-20T01:23:39.694Z,17.50
2022-08-20T01:26:14.731Z,17.60
2022-08-20T01:28:46.892Z,17.60
2022-08-20T01:31:32.157Z,17.50
2022-08-20T01:34:01.173Z,17.60
2022-08-20T01:36:35.935Z,17.50
2022-08-20T01:39:06.270Z,17.50
2022-08-20T01:42:08.039Z,17.50
2022-08-20T01:44:37.450Z,17.50
2022-08-20T01:47:15.154Z,17.50
2022-08-20T01:49:45.920Z,17.50
2022-08-20T01:52:24.524Z,17.50
2022-08-20T01:54:51.323Z,17.50
2022-08-20T01:57:20.642Z,17.50
2022-08-20T01:59:49.990Z,17.50
2022-08-20T02:02:16.763Z,17.50
2022-08-20T02:04:43.658Z,17.50
2022-08-20T02:07:16.646Z,17.40
2022-08-20T02:09:44.101Z,17.50
2022-08-20T02:12:12.266Z,17.40
2022-08-20T02:14:45.436Z,17.50
2022-08-20T02:17:13.361Z,17.50
2022-08-20T02:19:45.219Z,17.40
2022-08-20T02:22:18.238Z,17.50
2022-08-20T02:24:45.028Z,17.40
2022-08-20T02:27:12.688Z,17.50
2022-08-20T02:29:40.046Z,17.40
2022-08-20T02:32:32.493Z,17.40
2022-08-20T02:34:54.326Z,17.40
2022-08-20T02:37:21.139Z,17.30
2022-08-20T02:39:48.026Z,17.30
2022-08-20T02:42:14.909Z,17.30
2022-08-20T02:44:41.719Z,17.30
2022-08-20T02:47:08.520Z,17.30
2022-08-20T02:49:35.484Z,17.40
2022-08-20T02:52:02.317Z,17.30
2022-08-20T02:54:29.314Z,17.20
2022-08-20T02:56:56.466Z,17.20
2022-08-20T02:59:23.421Z,17.20
2022-08-20T03:02:00.227Z,17.20
2022-08-20T03:04:28.510Z,17.10
2022-08-20T03:06:55.330Z,17.20
2022-08-20T03:09:22.147Z,17.10
2022-08-20T03:11:48.944Z,17.10
2022-08-20T03:14:15.778Z,17.10
2022-08-20T03:16:42.567Z,17.00
2022-08-20T03:19:09.400Z,17.10
2022-08-20T03:21:36.144Z,17.00
2022-08-20T03:24:03.069Z,16.90
2022-08-20T03:26:29.910Z,17.00
2022-08-20T03:28:56.771Z,16.90
2022-08-20T03:31:23.692Z,17.00
2022-08-20T03:33:53.613Z,17.00
2022-08-20T03:36:28.273Z,16.90
2022-08-20T03:39:00.406Z,16.90
2022-08-20T03:41:27.249Z,16.80
2022-08-20T03:43:54.067Z,16.90
2022-08-20T03:46:23.364Z,16.80
2022-08-20T03:48:56.663Z,16.80
2022-08-20T03:51:30.733Z,16.80
2022-08-20T03:53:58.094Z,16.80
2022-08-20T03:56:26.005Z,16.80
2022-08-20T03:58:53.591Z,16.80
2022-08-20T04:01:44.425Z,16.70
2022-08-20T04:04:12.166Z,16.70
2022-08-20T04:06:39.920Z,16.70
2022-08-20T04:09:07.336Z,16.70
2022-08-20T04:11:36.405Z,16.70
2022-08-20T04:14:03.171Z,16.60
2022-08-20T04:16:31.927Z,16.60
2022-08-20T04:19:02.456Z,16.70
2022-08-20T04:21:34.688Z,16.60
2022-08-20T04:24:03.872Z,16.70
2022-08-20T04:26:31.155Z,16.70
2022-08-20T04:28:58.363Z,16.70
2022-08-20T04:31:25.602Z,16.70
2022-08-20T04:33:52.645Z,16.70
2022-08-20T04:36:19.674Z,16.70
2022-08-20T04:38:48.113Z,16.80
2022-08-20T04:41:22.801Z,16.80
2022-08-20T04:43:54.842Z,16.80
2022-08-20T04:46:23.982Z,16.80
2022-08-20T04:48:50.887Z,16.80
2022-08-20T04:51:18.695Z,16.80
2022-08-20T04:53:52.117Z,16.90
2022-08-20T04:56:19.784Z,16.90
2022-08-20T04:58:46.584Z,16.90
2022-08-20T05:01:13.420Z,17.00
2022-08-20T05:03:41.093Z,17.10
2022-08-20T05:06:09.994Z,17.10
2022-08-20T05:08:37.737Z,17.10
2022-08-20T05:11:33.072Z,17.20
2022-08-20T05:13:52.579Z,17.20
2022-08-20T05:16:20.178Z,17.30
2022-08-20T05:18:52.226Z,17.40
2022-08-20T05:21:19.723Z,17.50
2022-08-20T05:23:46.583Z,17.50
2022-08-20T05:26:13.849Z,17.50
2022-08-20T05:28:53.960Z,17.60
2022-08-20T05:31:32.230Z,17.70
2022-08-20T05:34:01.757Z,17.80
2022-08-20T05:36:28.926Z,17.80
2022-08-20T05:38:55.782Z,17.90
2022-08-20T05:41:29.728Z,17.90
2022-08-20T05:44:00.677Z,18.10
2022-08-20T05:46:28.121Z,18.10
2022-08-20T05:48:54.906Z,18.20
2022-08-20T05:51:26.846Z,18.30
2022-08-20T05:53:53.678Z,18.40
2022-08-20T05:56:21.671Z,18.50
2022-08-20T05:58:54.212Z,18.70
2022-08-20T06:01:21.675Z,18.70
2022-08-20T06:03:48.887Z,18.80
2022-08-20T06:06:20.741Z,18.70
2022-08-20T06:09:02.798Z,18.80
2022-08-20T06:11:31.705Z,18.80
2022-08-20T06:14:02.000Z,18.80
2022-08-20T06:16:29.002Z,18.90
2022-08-20T06:18:58.191Z,18.90
2022-08-20T06:21:25.480Z,18.90
2022-08-20T06:23:56.913Z,19.00
2022-08-20T06:26:30.156Z,19.10
2022-08-20T06:28:58.649Z,19.10
2022-08-20T06:31:25.515Z,19.20
2022-08-20T06:33:52.318Z,19.20
2022-08-20T06:36:19.821Z,19.20
2022-08-20T06:38:46.687Z,19.30
2022-08-20T06:41:13.683Z,19.50
2022-08-20T06:43:40.943Z,19.60
2022-08-20T06:46:07.778Z,19.60
2022-08-20T06:48:35.002Z,19.60
2022-08-20T06:51:01.856Z,19.60
2022-08-20T06:53:28.733Z,19.60
2022-08-20T06:55:57.765Z,19.60
2022-08-20T06:58:36.669Z,19.70
2022-08-20T07:01:09.760Z,19.70
2022-08-20T07:03:54.192Z,19.80
2022-08-20T07:06:22.834Z,19.80
2022-08-20T07:08:49.649Z,19.90
2022-08-20T07:11:16.433Z,20.00
2022-08-20T07:13:43.185Z,20.00
2022-08-20T07:16:09.986Z,20.10
2022-08-20T07:18:36.785Z,20.20
2022-08-20T07:21:03.978Z,20.20
2022-08-20T07:23:30.802Z,20.30
2022-08-20T07:25:57.805Z,20.40
2022-08-20T07:28:26.540Z,20.50
2022-08-20T07:30:56.778Z,20.50
2022-08-20T07:33:28.289Z,20.70
2022-08-20T07:35:59.518Z,20.80
2022-08-20T07:38:28.050Z,20.60
2022-08-20T07:40:58.382Z,20.90
2022-08-20T07:43:25.551Z,21.10
2022-08-20T07:45:54.297Z,21.10
2022-08-20T07:48:31.419Z,21.30
2022-08-20T07:51:02.214Z,21.30
2022-08-20T07:53:33.516Z,21.60
2022-08-20T07:56:11.470Z,21.60
2022-08-20T07:58:45.223Z,21.80
2022-08-20T08:01:12.150Z,21.90
2022-08-20T08:03:40.947Z,22.00
2022-08-20T08:06:28.692Z,22.10
2022-08-20T08:09:07.510Z,22.10
2022-08-20T08:11:38.080Z,22.20
2022-08-20T08:14:07.993Z,22.70
2022-08-20T08:16:35.745Z,22.90
2022-08-20T08:19:06.994Z,22.90
2022-08-20T08:21:33.829Z,22.90
2022-08-20T08:24:00.722Z,22.90
2022-08-20T08:26:27.599Z,23.00
2022-08-20T08:28:54.399Z,23.00
2022-08-20T08:31:21.214Z,23.00
2022-08-20T08:33:48.065Z,23.20
2022-08-20T08:36:16.223Z,23.20
2022-08-20T08:38:45.394Z,22.90
2022-08-20T08:41:19.812Z,22.80
2022-08-20T08:43:52.492Z,22.50
2022-08-20T08:46:23.657Z,22.90
2022-08-20T08:48:52.630Z,22.70
2022-08-20T08:51:30.599Z,22.80
2022-08-20T08:53:57.767Z,23.10
2022-08-20T08:56:28.464Z,22.90
2022-08-20T08:59:00.734Z,24.00
2022-08-20T09:01:54.850Z,25.00
2022-08-20T09:04:21.709Z,25.00
2022-08-20T09:06:52.371Z,25.70
2022-08-20T09:09:30.965Z,26.10
2022-08-20T09:12:07.811Z,26.40
2022-08-20T09:14:35.559Z,25.60
2022-08-20T09:17:02.914Z,24.70
2022-08-20T09:19:29.822Z,25.20
2022-08-20T09:21:57.806Z,24.90
2022-08-20T09:24:24.787Z,25.90
2022-08-20T09:26:51.662Z,27.20
2022-08-20T09:29:18.587Z,27.20
2022-08-20T09:31:45.369Z,26.70
2022-08-20T09:34:13.528Z,26.20
2022-08-20T09:36:40.323Z,26.20
2022-08-20T09:39:07.132Z,25.90
2022-08-20T09:41:34.503Z,25.60
2022-08-20T09:44:02.232Z,26.00
2022-08-20T09:46:29.139Z,25.70
2022-08-20T09:51:42.833Z,25.00
2022-08-20T09:56:58.618Z,24.90
2022-08-20T09:59:26.729Z,24.50
2022-08-20T10:01:53.811Z,24.50
2022-08-20T10:04:20.819Z,24.10
2022-08-20T10:06:47.933Z,24.20
2022-08-20T10:09:14.964Z,24.10
2022-08-20T10:14:28.795Z,24.20
2022-08-20T10:17:00.904Z,24.10
2022-08-20T10:19:29.302Z,24.50
2022-08-20T10:24:25.621Z,25.20
2022-08-20T10:26:56.096Z,24.70
2022-08-20T10:29:23.077Z,24.40
2022-08-20T10:31:50.152Z,24.20
2022-08-20T10:34:17.203Z,24.10
2022-08-20T10:36:44.150Z,24.00
2022-08-20T10:39:11.116Z,24.10
2022-08-20T10:41:39.207Z,24.00
2022-08-20T10:44:07.091Z,24.10
2022-08-20T10:46:34.607Z,24.10
2022-08-20T10:51:48.191Z,24.60
2022-08-20T10:54:15.559Z,24.80
2022-08-20T10:56:42.979Z,24.80
2022-08-20T10:59:09.799Z,25.40
2022-08-20T11:01:36.961Z,25.20
2022-08-20T11:04:04.081Z,24.90
2022-08-20T11:06:30.845Z,24.60
2022-08-20T11:08:57.587Z,24.70
2022-08-20T11:11:24.489Z,24.70
2022-08-20T11:16:37.991Z,24.80
2022-08-20T11:21:51.601Z,24.90
2022-08-20T11:24:18.405Z,25.20
2022-08-20T11:26:48.068Z,24.80
2022-08-20T11:32:03.766Z,25.20
2022-08-20T11:37:21.991Z,26.00
2022-08-20T11:39:48.904Z,26.10
2022-08-20T11:42:15.943Z,26.10
2022-08-20T11:44:43.165Z,26.20
2022-08-20T11:47:20.202Z,26.30
2022-08-20T11:49:46.989Z,26.10
2022-08-20T11:52:13.789Z,26.40
2022-08-20T11:54:42.207Z,27.20
2022-08-20T11:57:08.958Z,27.50
2022-08-20T11:59:35.754Z,27.60
2022-08-20T12:04:49.951Z,26.60
2022-08-20T12:07:19.133Z,26.70
2022-08-20T12:09:50.656Z,26.80
2022-08-20T12:12:19.878Z,26.50
2022-08-20T12:14:46.627Z,26.30
2022-08-20T12:17:20.040Z,26.00
2022-08-20T12:19:47.014Z,26.10
2022-08-20T12:22:21.386Z,26.00
2022-08-20T12:24:53.493Z,25.70
2022-08-20T12:27:27.167Z,25.90
2022-08-20T12:32:43.225Z,25.30
2022-08-20T12:35:12.140Z,25.30
2022-08-20T12:37:39.362Z,25.30
2022-08-20T12:40:09.830Z,25.00
2022-08-20T12:42:37.679Z,24.30
2022-08-20T12:45:05.024Z,23.60
2022-08-20T12:50:26.580Z,23.50
2022-08-20T12:52:56.698Z,23.40
2022-08-20T12:55:24.502Z,23.40
2022-08-20T13:00:47.478Z,23.20
2022-08-20T13:03:18.496Z,23.30
2022-08-20T13:05:45.270Z,23.30
2022-08-20T13:10:59.343Z,23.50
2022-08-20T13:16:12.878Z,23.80
2022-08-20T13:21:07.053Z,23.80
2022-08-20T13:23:33.830Z,23.90
2022-08-20T13:26:04.207Z,23.90
2022-08-20T13:28:31.708Z,24.00
2022-08-20T13:30:58.557Z,24.10
2022-08-20T13:33:25.436Z,24.30
2022-08-20T13:35:52.725Z,24.30
2022-08-20T13:41:06.377Z,24.30
2022-08-20T13:46:19.844Z,24.50
2022-08-20T13:48:46.729Z,24.60
2022-08-20T13:51:13.493Z,24.50
2022-08-20T13:56:32.670Z,24.90
2022-08-20T14:01:46.236Z,24.90
2022-08-20T14:04:13.065Z,24.70
2022-08-20T14:06:39.860Z,24.70
2022-08-20T14:09:06.689Z,24.80
2022-08-20T14:11:33.485Z,24.80
2022-08-20T14:14:00.264Z,24.90
2022-08-20T14:18:53.741Z,24.90
2022-08-20T14:21:20.563Z,24.80
2022-08-20T14:26:14.109Z,24.70
2022-08-20T14:28:40.852Z,24.80
2022-08-20T14:31:07.634Z,24.80
2022-08-20T14:33:36.098Z,24.60
2022-08-20T14:38:50.844Z,24.80
2022-08-20T14:44:05.444Z,25.10
2022-08-20T14:46:32.339Z,25.10
2022-08-20T14:48:59.097Z,25.10
2022-08-20T14:51:25.874Z,24.90
2022-08-20T14:53:52.678Z,24.70
2022-08-20T14:56:19.476Z,24.60
2022-08-20T14:58:46.250Z,24.60
2022-08-20T15:01:13.145Z,24.50
2022-08-20T15:03:39.986Z,24.80
2022-08-20T15:08:54.368Z,24.60
2022-08-20T15:14:08.609Z,24.50
2022-08-20T15:16:35.624Z,24.00
2022-08-20T15:19:02.519Z,24.10
2022-08-20T15:21:29.292Z,23.90
2022-08-20T15:24:19.092Z,24.00
2022-08-20T15:29:33.265Z,24.00
2022-08-20T15:32:00.093Z,23.90
2022-08-20T15:34:26.867Z,24.10
2022-08-20T15:36:53.668Z,24.10
2022-08-20T15:39:20.446Z,24.40
2022-08-20T15:41:47.231Z,24.40
2022-08-20T15:44:14.015Z,24.50
2022-08-20T15:46:40.854Z,24.60
2022-08-20T15:49:12.489Z,24.80
2022-08-20T15:51:46.260Z,25.40
2022-08-20T15:54:26.323Z,25.90
2022-08-20T15:57:07.239Z,26.30
2022-08-20T15:59:33.975Z,26.00
2022-08-20T16:02:21.594Z,26.50
2022-08-20T16:11:17.114Z,27.00
2022-08-20T16:13:43.880Z,27.00
2022-08-20T16:19:03.607Z,26.80
2022-08-20T16:21:37.286Z,26.70
2022-08-20T16:24:07.561Z,26.50
2022-08-20T16:27:05.625Z,26.60
2022-08-20T16:29:54.156Z,27.00
2022-08-20T16:32:33.955Z,26.80
2022-08-20T16:35:26.231Z,26.60
2022-08-20T16:38:21.122Z,26.30
2022-08-20T16:44:18.994Z,26.00
2022-08-20T16:46:58.905Z,25.90
2022-08-20T16:49:28.050Z,25.80
2022-08-20T16:51:54.846Z,25.70
2022-08-20T16:54:29.330Z,25.40
2022-08-20T16:57:02.046Z,25.20
2022-08-20T16:59:28.915Z,24.90
2022-08-20T17:02:08.326Z,24.60
2022-08-20T17:07:46.228Z,24.50
2022-08-20T17:10:18.001Z,24.20
2022-08-20T17:12:45.570Z,24.10
2022-08-20T17:15:20.845Z,24.00
2022-08-20T17:17:48.686Z,23.90
2022-08-20T17:23:16.723Z,23.80
2022-08-20T17:25:45.127Z,24.10
2022-08-20T17:28:15.991Z,24.50
2022-08-20T17:33:34.796Z,24.40
2022-08-20T17:36:08.162Z,23.80
2022-08-20T17:38:39.912Z,23.50
2022-08-20T17:41:22.020Z,23.20
2022-08-20T17:46:55.841Z,22.80
2022-08-20T17:49:36.308Z,22.70
2022-08-20T17:52:11.326Z,22.50
2022-08-20T17:54:42.314Z,22.40
2022-08-20T17:57:14.862Z,22.30
2022-08-20T18:00:00.695Z,22.20
2022-08-20T18:02:29.409Z,22.10
2022-08-20T18:04:56.312Z,21.70
2022-08-20T18:07:44.844Z,21.70
2022-08-20T18:10:20.444Z,21.60
2022-08-20T18:12:59.122Z,21.50
2022-08-20T18:15:40.815Z,21.40
2022-08-20T18:18:33.855Z,21.30
2022-08-20T18:21:31.433Z,21.20
2022-08-20T18:24:08.059Z,21.00
2022-08-20T18:26:49.072Z,20.90
2022-08-20T18:29:24.376Z,20.70
2022-08-20T18:31:55.585Z,20.70
2022-08-20T18:34:38.246Z,20.40
2022-08-20T18:37:06.561Z,20.30
2022-08-20T18:39:39.491Z,20.10
2022-08-20T18:44:54.874Z,20.00
2022-08-20T18:47:36.090Z,19.90
2022-08-20T18:53:13.055Z,19.70
2022-08-20T18:55:43.416Z,19.60
2022-08-20T18:58:27.939Z,19.50
2022-08-20T19:00:54.858Z,19.40
2022-08-20T19:06:36.360Z,19.20
2022-08-20T19:09:25.429Z,19.00
2022-08-20T19:12:06.977Z,18.90
2022-08-20T19:21:01.851Z,18.70
2022-08-20T19:23:38.174Z,18.60
2022-08-20T19:26:25.102Z,18.60
2022-08-20T19:29:15.702Z,18.60
2022-08-20T19:31:43.457Z,18.40
2022-08-20T19:34:20.169Z,18.40
2022-08-20T19:37:32.764Z,18.20
2022-08-20T19:40:05.661Z,18.20
2022-08-20T19:42:42.112Z,18.00
2022-08-20T19:45:24.052Z,17.90
2022-08-20T19:51:32.358Z,17.90
2022-08-20T19:53:59.218Z,17.80
2022-08-20T19:59:21.352Z,17.70
2022-08-20T20:01:56.881Z,17.70
2022-08-20T20:04:27.969Z,17.60
2022-08-20T20:06:57.003Z,17.50
2022-08-20T20:09:27.392Z,17.50
2022-08-20T20:12:22.539Z,17.30
2022-08-20T20:14:53.010Z,17.30
2022-08-20T20:17:27.193Z,17.20
2022-08-20T20:20:14.313Z,17.20
2022-08-20T20:23:13.600Z,17.10
2022-08-20T20:31:50.866Z,16.90
2022-08-20T20:34:23.220Z,16.80
2022-08-20T20:40:02.100Z,16.60
2022-08-20T20:42:30.191Z,16.60
2022-08-20T20:44:57.238Z,16.50
2022-08-20T20:56:35.522Z,16.40
2022-08-20T20:59:06.553Z,16.30
2022-08-20T21:01:48.824Z,16.30
2022-08-20T21:04:17.399Z,16.30
2022-08-20T21:06:44.207Z,16.20
2022-08-20T21:11:57.745Z,16.00
2022-08-20T21:14:24.514Z,15.90
2022-08-20T21:17:01.080Z,15.90
2022-08-20T21:19:28.568Z,15.90
2022-08-20T21:21:55.879Z,15.80
2022-08-20T21:24:22.954Z,15.80
2022-08-20T21:29:37.519Z,15.70
2022-08-20T21:32:04.679Z,15.70
2022-08-20T21:34:31.532Z,15.80
2022-08-20T21:36:58.348Z,15.70
2022-08-20T21:39:26.148Z,15.80
2022-08-20T21:42:02.876Z,15.80
2022-08-20T21:44:32.000Z,15.70
2022-08-20T21:46:59.794Z,15.70
2022-08-20T21:52:15.740Z,15.50
2022-08-20T21:57:31.730Z,15.50
2022-08-20T21:59:59.056Z,15.40
2022-08-20T22:02:27.467Z,15.30
2022-08-20T22:04:54.738Z,15.20
2022-08-20T22:07:22.073Z,15.10
2022-08-20T22:09:48.961Z,15.10
2022-08-20T22:15:07.159Z,15.10
2022-08-20T22:17:34.265Z,15.00
2022-08-20T22:20:01.058Z,15.10
2022-08-20T22:22:27.826Z,14.90
2022-08-20T22:24:54.725Z,14.90
2022-08-20T22:27:21.536Z,14.80
2022-08-20T22:32:51.826Z,14.80
2022-08-20T22:35:19.589Z,14.80
2022-08-20T22:37:46.724Z,14.90
2022-08-20T22:43:00.172Z,14.70
2022-08-20T22:48:17.508Z,14.80
2022-08-20T22:50:44.981Z,14.70
2022-08-20T22:53:13.527Z,14.70
2022-08-20T22:58:07.327Z,14.70
2022-08-20T23:00:35.079Z,14.60
2022-08-20T23:03:03.152Z,14.50
2022-08-20T23:05:32.512Z,14.70
2022-08-20T23:10:47.039Z,14.50
2022-08-20T23:13:18.116Z,14.50
2022-08-20T23:15:45.557Z,14.50
2022-08-20T23:18:15.862Z,14.40
2022-08-20T23:20:46.386Z,14.40
2022-08-20T23:23:13.162Z,14.40
2022-08-20T23:28:28.153Z,14.30
2022-08-20T23:30:55.078Z,14.30
2022-08-20T23:33:22.005Z,14.30
2022-08-20T23:35:49.154Z,14.20
2022-08-20T23:38:16.058Z,14.20
2022-08-20T23:40:42.992Z,14.20
2022-08-20T23:46:01.339Z,14.10
2022-08-20T23:48:28.349Z,14.10
2022-08-20T23:50:55.165Z,14.10
2022-08-20T23:53:21.955Z,14.00
2022-08-20T23:55:48.810Z,14.00
2022-08-20T23:58:15.670Z,14.00
